Погода Сиуцеона 2 недели

Халиско, Мексика

04 - 17 марта
  • 04марта
    Сегодня
    +8°
    +29°
    Ясно и безоблачно
    ВремяПогодаТемператураВлажностьДавлениеВетер, м/сВероятность осадков
    00:00Ясно и безоблачно+17°C64 %638 мм2.6 м/с2 %
    03:00Ясно и безоблачно+14°C72 %636 мм0.9 м/с2 %
    06:00Ясно и безоблачно+10°C84 %635 мм1.3 м/с2 %
    09:00Ясно и безоблачно+15°C60 %638 мм0.9 м/с2 %
    12:00Ясно и безоблачно+23°C32 %640 мм2.2 м/с2 %
    15:00Ясно и безоблачно+27°C21 %638 мм4.0 м/с2 %
    18:00Ясно и безоблачно+28°C20 %637 мм4.2 м/с2 %
    21:00Ясно и безоблачно+20°C47 %637 мм2.7 м/с2 %
  • 05марта
    Вторник
    +9°
    +29°
    Небольшая облачность
    ВремяПогодаТемператураВлажностьДавлениеВетер, м/сВероятность осадков
    00:00Ясно и безоблачно+17°C49 %637 мм1.7 м/с2 %
    03:00Ясно и безоблачно+13°C64 %635 мм1.3 м/с2 %
    06:00Ясно и безоблачно+9°C75 %634 мм1.4 м/с2 %
    09:00Ясно и безоблачно+14°C50 %637 мм0.9 м/с2 %
    12:00Облачно с прояснениями+23°C27 %639 мм1.8 м/с2 %
    15:00Небольшая облачность+28°C17 %637 мм3.5 м/с2 %
    18:00Облачно с прояснениями+28°C19 %637 мм3.0 м/с2 %
    21:00Ясно и безоблачно+20°C44 %636 мм1.9 м/с2 %
  • 06марта
    Среда
    +10°
    +30°
    Ясно и безоблачно
    ВремяПогодаТемператураВлажностьДавлениеВетер, м/сВероятность осадков
    00:00Ясно и безоблачно+17°C51 %636 мм2.7 м/с2 %
    03:00Облачно с прояснениями+13°C66 %634 мм0.7 м/с2 %
    06:00Ясно и безоблачно+10°C75 %633 мм1.2 м/с2 %
    09:00Ясно и безоблачно+15°C51 %637 мм0.6 м/с2 %
    12:00Небольшая облачность+24°C27 %638 мм1.8 м/с2 %
    15:00Ясно и безоблачно+28°C20 %637 мм3.7 м/с2 %
    18:00Ясно и безоблачно+29°C21 %636 мм3.3 м/с2 %
    21:00Практически безоблачно+21°C48 %636 мм2.3 м/с2 %
  • 07марта
    Четверг
    +10°
    +29°
    Ясно и безоблачно
    ВремяПогодаТемператураВлажностьДавлениеВетер, м/сВероятность осадков
    00:00Ясно и безоблачно+17°C50 %636 мм2.1 м/с2 %
    03:00Небольшая облачность+14°C55 %634 мм1.1 м/с2 %
    06:00Ясно и безоблачно+11°C63 %634 мм1.2 м/с2 %
    09:00Ясно и безоблачно+16°C43 %638 мм0.4 м/с2 %
    12:00Ясно и безоблачно+24°C29 %639 мм2.6 м/с2 %
    15:00Ясно и безоблачно+28°C19 %637 мм4.3 м/с2 %
    18:00Небольшая облачность+28°C19 %636 мм3.2 м/с2 %
    21:00Практически безоблачно+21°C53 %637 мм2.4 м/с2 %
  • 08марта
    Пятница
    +9°
    +30°
    Небольшая облачность
    ВремяПогодаТемператураВлажностьДавлениеВетер, м/сВероятность осадков
    00:00Небольшая облачность+18°C45 %637 мм2.4 м/с2 %
    03:00Облачно с прояснениями+14°C55 %635 мм1.7 м/с2 %
    06:00Облачно с прояснениями+11°C66 %634 мм0.7 м/с2 %
    09:00Облачно с прояснениями+15°C46 %638 мм1.0 м/с2 %
    12:00Небольшая облачность+24°C30 %639 мм2.2 м/с2 %
    15:00Небольшая облачность+29°C16 %638 мм4.5 м/с2 %
    18:00Ясно и безоблачно+30°C16 %637 мм4.4 м/с2 %
    21:00Ясно и безоблачно+20°C46 %637 мм2.0 м/с2 %
Мы используем cookies
Соглашаюсь